createdAt,value
2023-05-22T07:14:50.096Z,24.44
2023-05-22T07:17:20.655Z,24.52
2023-05-22T07:19:49.003Z,24.70
2023-05-22T07:22:17.030Z,24.92
2023-05-22T07:24:46.550Z,25.10
2023-05-22T07:27:15.075Z,25.46
2023-05-22T07:29:43.226Z,25.70
2023-05-22T07:32:11.815Z,25.36
2023-05-22T07:34:40.032Z,25.42
2023-05-22T07:37:11.140Z,25.80
2023-05-22T07:39:39.412Z,25.80
2023-05-22T07:42:07.863Z,26.00
2023-05-22T07:44:39.523Z,26.10
2023-05-22T07:47:08.056Z,26.24
2023-05-22T07:49:36.481Z,26.12
2023-05-22T07:52:04.742Z,26.54
2023-05-22T07:54:33.193Z,26.76
2023-05-22T07:57:03.702Z,26.44
2023-05-22T07:59:35.962Z,26.44
2023-05-22T08:02:04.287Z,25.98
2023-05-22T08:04:32.674Z,25.76
2023-05-22T08:07:01.966Z,26.08
2023-05-22T08:09:30.192Z,25.90
2023-05-22T08:11:58.187Z,26.38
2023-05-22T08:14:26.307Z,26.50
2023-05-22T08:16:54.473Z,26.82
2023-05-22T08:19:22.661Z,27.22
2023-05-22T08:21:58.360Z,27.20
2023-05-22T08:24:30.685Z,27.14
2023-05-22T08:26:58.890Z,27.06
2023-05-22T08:29:27.253Z,27.14
2023-05-22T08:31:57.082Z,27.34
2023-05-22T08:34:25.860Z,27.40
2023-05-22T08:36:53.994Z,27.28
2023-05-22T08:39:22.009Z,27.60
2023-05-22T08:41:49.973Z,27.70
2023-05-22T08:44:19.868Z,27.36
2023-05-22T08:46:48.670Z,26.96
2023-05-22T08:49:16.687Z,27.28
2023-05-22T08:51:46.708Z,27.36
2023-05-22T08:54:14.981Z,27.92
2023-05-22T08:56:55.776Z,28.40
2023-05-22T08:59:25.118Z,28.66
2023-05-22T09:01:53.688Z,28.46
2023-05-22T09:04:23.812Z,28.20
2023-05-22T09:06:52.270Z,28.50
2023-05-22T09:09:20.752Z,28.78
2023-05-22T09:11:49.758Z,28.86
2023-05-22T09:14:18.649Z,29.20
2023-05-22T09:16:47.740Z,29.10
2023-05-22T09:19:16.218Z,29.22
2023-05-22T09:21:48.166Z,29.56
2023-05-22T09:24:16.540Z,29.74
2023-05-22T09:26:44.720Z,29.80
2023-05-22T09:29:12.763Z,29.76
2023-05-22T09:31:42.445Z,30.12
2023-05-22T09:34:11.225Z,30.20
2023-05-22T09:36:39.206Z,29.90
2023-05-22T09:39:07.329Z,30.24
2023-05-22T09:41:38.283Z,30.34
2023-05-22T09:44:14.240Z,30.30
2023-05-22T09:46:44.748Z,30.56
2023-05-22T09:49:16.106Z,30.60
2023-05-22T09:51:48.206Z,30.66
2023-05-22T09:54:17.669Z,30.62
2023-05-22T09:56:48.818Z,30.80
2023-05-22T09:59:26.832Z,30.78
2023-05-22T10:01:55.363Z,31.02
2023-05-22T10:04:23.720Z,30.94
2023-05-22T10:06:53.841Z,30.60
2023-05-22T10:09:24.886Z,31.00
2023-05-22T10:11:53.813Z,30.30
2023-05-22T10:14:22.312Z,29.70
2023-05-22T10:16:51.553Z,30.04
2023-05-22T10:19:20.567Z,30.62
2023-05-22T10:21:48.707Z,30.70
2023-05-22T10:24:16.777Z,31.18
2023-05-22T10:26:44.741Z,31.50
2023-05-22T10:29:25.811Z,31.50
2023-05-22T10:31:56.796Z,31.58
2023-05-22T10:34:42.550Z,31.94
2023-05-22T10:37:32.452Z,32.30
2023-05-22T10:40:13.530Z,32.34
2023-05-22T10:42:41.636Z,32.06
2023-05-22T10:45:10.727Z,32.28
2023-05-22T10:47:38.927Z,32.30
2023-05-22T10:50:11.656Z,31.70
2023-05-22T10:52:40.226Z,32.00
2023-05-22T10:55:09.342Z,32.24
2023-05-22T10:57:38.699Z,32.18
2023-05-22T11:00:07.992Z,32.24
2023-05-22T11:02:41.443Z,32.10
2023-05-22T11:05:21.717Z,32.44
2023-05-22T11:07:49.950Z,31.88
2023-05-22T11:10:27.808Z,31.84
2023-05-22T11:13:11.943Z,31.68
2023-05-22T11:15:44.255Z,31.48
2023-05-22T11:18:12.944Z,32.04
2023-05-22T11:20:41.644Z,32.36
2023-05-22T11:23:10.960Z,31.82
2023-05-22T11:25:41.417Z,31.88
2023-05-22T11:28:11.634Z,31.88
2023-05-22T11:30:39.802Z,32.20
2023-05-22T11:33:08.189Z,32.46
2023-05-22T11:35:36.922Z,31.46
2023-05-22T11:38:06.288Z,31.40
2023-05-22T11:40:34.310Z,31.18
2023-05-22T11:43:04.200Z,31.20
2023-05-22T11:45:32.229Z,31.18
2023-05-22T11:48:00.417Z,31.86
2023-05-22T11:50:41.888Z,32.20
2023-05-22T11:53:11.358Z,32.58
2023-05-22T11:55:39.375Z,32.60
2023-05-22T11:58:07.460Z,32.58
2023-05-22T12:00:35.561Z,32.50
2023-05-22T12:03:04.250Z,31.24
2023-05-22T12:05:32.717Z,31.00
2023-05-22T12:08:00.734Z,30.82
2023-05-22T12:10:28.930Z,31.06
2023-05-22T12:12:56.847Z,31.20
2023-05-22T12:15:25.674Z,30.92
2023-05-22T12:17:56.924Z,30.84
2023-05-22T12:20:30.781Z,31.24
2023-05-22T12:23:00.029Z,31.40
2023-05-22T12:25:34.178Z,31.68
2023-05-22T12:28:02.331Z,31.50
2023-05-22T12:30:40.017Z,31.10
2023-05-22T12:33:17.584Z,31.08
2023-05-22T12:35:46.053Z,31.06
2023-05-22T12:38:14.522Z,31.34
2023-05-22T12:40:42.793Z,31.30
2023-05-22T12:43:11.480Z,31.58
2023-05-22T12:45:42.515Z,31.26
2023-05-22T12:48:10.658Z,31.30
2023-05-22T12:50:39.065Z,31.22
2023-05-22T12:53:07.268Z,30.80
2023-05-22T12:55:36.028Z,30.78
2023-05-22T12:58:04.556Z,30.78
2023-05-22T13:00:32.698Z,30.08
2023-05-22T13:03:01.274Z,30.00
2023-05-22T13:05:29.327Z,30.28
2023-05-22T13:07:57.451Z,30.56
2023-05-22T13:10:25.438Z,30.80
2023-05-22T13:12:53.483Z,31.00
2023-05-22T13:15:21.731Z,30.60
2023-05-22T13:17:50.155Z,29.96
2023-05-22T13:20:19.040Z,29.70
2023-05-22T13:22:47.016Z,29.26
2023-05-22T13:25:15.103Z,28.60
2023-05-22T13:27:43.328Z,28.20
2023-05-22T13:30:11.755Z,27.96
2023-05-22T13:32:39.896Z,27.54
2023-05-22T13:35:08.783Z,27.14
2023-05-22T13:37:37.102Z,26.90
2023-05-22T13:40:06.548Z,26.70
2023-05-22T13:42:34.670Z,26.70
2023-05-22T13:45:04.144Z,26.50
2023-05-22T13:47:32.327Z,26.40
2023-05-22T13:50:00.735Z,26.40
2023-05-22T13:52:28.901Z,26.40
2023-05-22T13:54:56.919Z,26.30
2023-05-22T13:57:24.911Z,26.30
2023-05-22T13:59:53.181Z,26.30
2023-05-22T14:02:21.295Z,26.20
2023-05-22T14:04:51.578Z,26.20
2023-05-22T14:07:19.854Z,25.80
2023-05-22T14:09:47.956Z,25.70
2023-05-22T14:12:16.060Z,25.60
2023-05-22T14:14:44.098Z,25.62
2023-05-22T14:17:12.341Z,25.80
2023-05-22T14:19:40.663Z,25.90
2023-05-22T14:22:08.816Z,25.80
2023-05-22T14:24:36.965Z,25.70
2023-05-22T14:27:05.649Z,25.50
2023-05-22T14:29:33.837Z,25.30
2023-05-22T14:32:05.847Z,25.12
2023-05-22T14:34:33.994Z,24.92
2023-05-22T14:37:02.145Z,24.90
2023-05-22T14:39:30.416Z,24.80
2023-05-22T14:41:58.749Z,24.70
2023-05-22T14:44:26.746Z,24.70
2023-05-22T14:46:55.121Z,24.80
2023-05-22T14:49:23.419Z,25.00
2023-05-22T14:51:51.800Z,25.00
2023-05-22T14:54:20.595Z,25.10
2023-05-22T14:56:48.655Z,25.20
2023-05-22T14:59:17.067Z,25.30
2023-05-22T15:01:50.249Z,25.40
2023-05-22T15:04:18.560Z,25.40
2023-05-22T15:06:46.809Z,25.58
2023-05-22T15:09:15.175Z,25.60
2023-05-22T15:11:46.565Z,25.60
2023-05-22T15:14:15.612Z,25.50
2023-05-22T15:16:44.394Z,25.20
2023-05-22T15:19:12.837Z,25.10
2023-05-22T15:21:42.234Z,25.00
2023-05-22T15:24:10.549Z,24.94
2023-05-22T15:26:38.629Z,24.88
2023-05-22T15:29:06.660Z,24.74
2023-05-22T15:31:34.944Z,24.70
2023-05-22T15:34:03.129Z,24.58
2023-05-22T15:36:33.175Z,24.50
2023-05-22T15:39:01.248Z,24.32
2023-05-22T15:41:29.337Z,24.20
2023-05-22T15:43:57.487Z,24.10
2023-05-22T15:46:25.620Z,24.10
2023-05-22T15:48:54.561Z,24.20
2023-05-22T15:51:22.630Z,24.30
2023-05-22T15:53:51.036Z,24.40
2023-05-22T15:56:19.079Z,24.50
2023-05-22T15:58:47.242Z,24.50
2023-05-22T16:01:15.631Z,24.40
2023-05-22T16:03:43.911Z,24.50
2023-05-22T16:06:12.000Z,24.50
2023-05-22T16:08:40.046Z,24.50
2023-05-22T16:11:08.621Z,24.50
2023-05-22T16:13:37.116Z,24.40
2023-05-22T16:16:06.276Z,24.30
2023-05-22T16:18:34.306Z,24.20
2023-05-22T16:21:03.688Z,24.00
2023-05-22T16:23:31.840Z,23.90
2023-05-22T16:26:00.085Z,23.74
2023-05-22T16:28:28.513Z,23.60
2023-05-22T16:30:56.624Z,23.50
2023-05-22T16:33:25.000Z,23.32
2023-05-22T16:35:53.251Z,23.20
2023-05-22T16:38:21.412Z,23.10
2023-05-22T16:40:49.442Z,22.92
2023-05-22T16:43:17.763Z,22.80
2023-05-22T16:45:47.813Z,22.70
2023-05-22T16:48:16.487Z,22.64
2023-05-22T16:50:46.964Z,22.60
2023-05-22T16:53:17.532Z,22.50
2023-05-22T16:55:45.808Z,22.40
2023-05-22T16:58:14.154Z,22.40
2023-05-22T17:00:42.642Z,22.30
2023-05-22T17:03:12.166Z,22.30
2023-05-22T17:05:41.221Z,22.30
2023-05-22T17:08:09.518Z,22.30
2023-05-22T17:10:37.521Z,22.30
2023-05-22T17:13:05.809Z,22.30
2023-05-22T17:15:34.072Z,22.26
2023-05-22T17:18:02.100Z,22.20
2023-05-22T17:20:30.185Z,22.12
2023-05-22T17:22:58.209Z,22.10
2023-05-22T17:25:26.551Z,22.00
2023-05-22T17:27:54.730Z,21.90
2023-05-22T17:30:22.742Z,21.80
2023-05-22T17:32:53.718Z,21.70
2023-05-22T17:35:21.710Z,21.66
2023-05-22T17:37:49.828Z,21.50
2023-05-22T17:40:18.284Z,21.40
2023-05-22T17:42:47.055Z,21.30
2023-05-22T17:45:15.232Z,21.20
2023-05-22T17:47:43.408Z,21.10
2023-05-22T17:50:12.087Z,21.10
2023-05-22T17:52:41.293Z,21.00
2023-05-22T17:55:09.420Z,20.90
2023-05-22T17:57:37.646Z,20.80
2023-05-22T18:00:10.253Z,20.70
2023-05-22T18:02:41.204Z,20.60
2023-05-22T18:05:10.258Z,20.50
2023-05-22T18:07:38.395Z,20.50
2023-05-22T18:10:07.040Z,20.36
2023-05-22T18:12:36.702Z,20.20
2023-05-22T18:15:09.704Z,19.90
2023-05-22T18:17:38.960Z,19.70
2023-05-22T18:20:08.619Z,19.50
2023-05-22T18:22:37.438Z,19.40
2023-05-22T18:25:09.280Z,19.40
2023-05-22T18:27:37.306Z,19.40
2023-05-22T18:30:06.203Z,19.40
2023-05-22T18:32:34.616Z,19.30
2023-05-22T18:35:05.759Z,19.30
2023-05-22T18:37:33.691Z,19.30
2023-05-22T18:40:01.725Z,19.20
2023-05-22T18:42:29.990Z,19.20
2023-05-22T18:44:58.830Z,19.20
2023-05-22T18:47:27.005Z,19.20
2023-05-22T18:49:55.041Z,19.20
2023-05-22T18:52:23.746Z,19.10
2023-05-22T18:54:51.899Z,19.00
2023-05-22T18:57:21.777Z,18.98
2023-05-22T18:59:50.083Z,18.90
2023-05-22T19:02:21.299Z,18.90
2023-05-22T19:04:50.814Z,18.80
2023-05-22T19:07:19.024Z,18.80
2023-05-22T19:09:47.150Z,18.88
2023-05-22T19:12:15.331Z,18.88
2023-05-22T19:14:43.334Z,18.80
2023-05-22T19:17:12.221Z,18.80
2023-05-22T19:19:40.533Z,18.80
2023-05-22T19:22:08.649Z,18.70
2023-05-22T19:24:36.723Z,18.72
2023-05-22T19:27:04.815Z,18.70
2023-05-22T19:29:32.919Z,18.70
2023-05-22T19:32:00.867Z,18.70
2023-05-22T19:34:28.940Z,18.70
2023-05-22T19:36:57.982Z,18.70
2023-05-22T19:39:26.136Z,18.70
2023-05-22T19:41:54.704Z,18.68
2023-05-22T19:44:22.869Z,18.70
2023-05-22T19:46:50.972Z,18.64
2023-05-22T19:49:19.080Z,18.62
2023-05-22T19:51:47.086Z,18.60
2023-05-22T19:54:15.358Z,18.54
2023-05-22T19:56:43.330Z,18.52
2023-05-22T19:59:11.428Z,18.56
2023-05-22T20:01:39.474Z,18.50
2023-05-22T20:04:07.933Z,18.48
2023-05-22T20:06:35.976Z,18.40
2023-05-22T20:09:05.919Z,18.30
2023-05-22T20:11:33.967Z,18.20
2023-05-22T20:14:02.624Z,18.10
2023-05-22T20:16:30.673Z,18.00
2023-05-22T20:18:58.796Z,17.90
2023-05-22T20:21:27.454Z,17.70
2023-05-22T20:23:55.802Z,17.70
2023-05-22T20:26:23.969Z,17.60
2023-05-22T20:28:52.175Z,17.60
2023-05-22T20:31:20.229Z,17.50
2023-05-22T20:33:48.393Z,17.40
2023-05-22T20:36:16.671Z,17.34
2023-05-22T20:38:44.743Z,17.30
2023-05-22T20:41:13.083Z,17.20
2023-05-22T20:43:43.580Z,17.10
2023-05-22T20:46:12.696Z,17.00
2023-05-22T20:48:46.880Z,16.90
2023-05-22T20:51:21.206Z,16.90
2023-05-22T20:53:50.289Z,16.82
2023-05-22T20:56:18.319Z,16.80
2023-05-22T20:58:46.293Z,16.70
2023-05-22T21:01:14.410Z,16.70
2023-05-22T21:03:42.473Z,16.60
2023-05-22T21:06:10.687Z,16.58
2023-05-22T21:08:38.821Z,16.58
2023-05-22T21:11:07.573Z,16.50
2023-05-22T21:13:35.636Z,16.40
2023-05-22T21:16:03.833Z,16.20
2023-05-22T21:18:31.919Z,16.16
2023-05-22T21:21:00.128Z,16.10
2023-05-22T21:23:28.208Z,16.20
2023-05-22T21:25:56.240Z,16.08
2023-05-22T21:28:24.485Z,15.80
2023-05-22T21:30:52.469Z,15.70
2023-05-22T21:33:20.765Z,15.72
2023-05-22T21:35:49.191Z,15.64
2023-05-22T21:38:17.468Z,15.50
2023-05-22T21:40:45.880Z,15.58
2023-05-22T21:43:13.964Z,15.60
2023-05-22T21:45:41.998Z,15.68
2023-05-22T21:48:10.110Z,15.70
2023-05-22T21:50:38.374Z,15.70
2023-05-22T21:53:06.803Z,15.80
2023-05-22T21:55:36.169Z,15.80
2023-05-22T21:58:04.265Z,15.80
2023-05-22T22:00:32.385Z,15.90
2023-05-22T22:03:00.519Z,15.90
2023-05-22T22:05:28.787Z,15.90
2023-05-22T22:07:56.807Z,15.90
2023-05-22T22:10:24.787Z,15.90
2023-05-22T22:12:52.817Z,15.80
2023-05-22T22:15:21.863Z,15.80
2023-05-22T22:17:50.286Z,15.80
2023-05-22T22:20:24.763Z,15.80
2023-05-22T22:22:59.077Z,15.70
2023-05-22T22:25:27.317Z,15.78
2023-05-22T22:27:55.708Z,15.80
2023-05-22T22:30:23.792Z,15.80
2023-05-22T22:32:52.202Z,15.72
2023-05-22T22:35:20.705Z,15.70
2023-05-22T22:37:48.799Z,15.60
2023-05-22T22:40:16.894Z,15.50
2023-05-22T22:42:44.925Z,15.40
2023-05-22T22:45:12.971Z,15.30
2023-05-22T22:47:41.061Z,15.30
2023-05-22T22:50:10.116Z,15.30
2023-05-22T22:52:38.376Z,15.30
2023-05-22T22:55:07.273Z,15.20
2023-05-22T22:57:36.249Z,15.20
2023-05-22T23:00:05.673Z,15.20
2023-05-22T23:02:33.854Z,15.10
2023-05-22T23:05:02.069Z,15.10
2023-05-22T23:07:30.380Z,15.00
2023-05-22T23:09:58.368Z,15.00
2023-05-22T23:12:26.527Z,15.00
2023-05-22T23:14:55.598Z,15.00
2023-05-22T23:17:23.645Z,14.90
2023-05-22T23:19:52.009Z,14.90
2023-05-22T23:22:20.036Z,14.90
2023-05-22T23:24:48.062Z,14.90
2023-05-22T23:27:16.042Z,14.88
2023-05-22T23:29:44.109Z,14.80
2023-05-22T23:32:14.568Z,14.68
2023-05-22T23:34:43.288Z,14.60
2023-05-22T23:37:11.314Z,14.54
2023-05-22T23:39:39.514Z,14.60
2023-05-22T23:42:09.894Z,14.60
2023-05-22T23:44:38.016Z,14.70
2023-05-22T23:47:06.734Z,14.70
2023-05-22T23:49:35.481Z,14.80
2023-05-22T23:52:03.963Z,14.88
2023-05-22T23:54:31.995Z,14.88
2023-05-22T23:57:00.209Z,14.80
2023-05-22T23:59:28.208Z,14.72
